Time;durP1;ratioP1;P1;durP2;ratioP2;P2;SDS_P1;SDS_P2;PMS_P1;PMS_P2;Temp;Humidity;BMP_temperature;BMP_pressure;BME280_temperature;BME280_humidity;BME280_pressure;Samples;Min_cycle;Max_cycle;Signal;HPM_P1;HPM_P2
2023/03/14 00:00:32;;;;;;;3.53;0.88;;;;;;;;;;5067497;28;20064;-75
2023/03/14 00:02:58;;;;;;;2.45;0.95;;;;;;;;;;5068535;28;20086;-75
2023/03/14 00:05:23;;;;;;;4.30;0.70;;;;;;;;;;5067100;28;20031;-75
2023/03/14 00:07:48;;;;;;;4.10;0.60;;;;;;;;;;5049212;28;20489;-75
2023/03/14 00:10:14;;;;;;;3.60;0.70;;;;;;;;;;5048120;28;20032;-76
2023/03/14 00:12:43;;;;;;;1.98;0.80;;;;;;;;;;5051657;28;20052;-76
2023/03/14 00:15:10;;;;;;;4.75;1.15;;;;;;;;;;5065194;28;20036;-75
2023/03/14 00:17:36;;;;;;;1.45;0.70;;;;;;;;;;5065577;28;20036;-75
2023/03/14 00:20:12;;;;;;;3.20;0.80;;;;;;;;;;5065905;28;20118;-75
2023/03/14 00:22:39;;;;;;;3.45;0.60;;;;;;;;;;5068384;28;20035;-75
2023/03/14 00:25:06;;;;;;;2.15;0.80;;;;;;;;;;5060592;28;20040;-75
2023/03/14 00:27:31;;;;;;;3.13;0.70;;;;;;;;;;5064091;28;20124;-75
2023/03/14 00:29:57;;;;;;;4.60;1.10;;;;;;;;;;5059382;28;20119;-76
2023/03/14 00:32:22;;;;;;;4.18;1.00;;;;;;;;;;5063596;28;20028;-75
2023/03/14 00:34:47;;;;;;;2.95;1.00;;;;;;;;;;5050973;28;20029;-75
2023/03/14 00:37:13;;;;;;;4.32;1.00;;;;;;;;;;5048537;28;20032;-75
2023/03/14 00:39:39;;;;;;;3.83;1.00;;;;;;;;;;5063961;28;20121;-76
2023/03/14 00:42:04;;;;;;;5.05;1.58;;;;;;;;;;5064763;28;20499;-75
2023/03/14 00:44:30;;;;;;;7.00;1.15;;;;;;;;;;5065610;28;20365;-76
2023/03/14 00:46:55;;;;;;;3.97;1.20;;;;;;;;;;5061320;28;20031;-75
2023/03/14 00:49:20;;;;;;;3.55;1.00;;;;;;;;;;5066448;28;20469;-76
2023/03/14 00:51:46;;;;;;;4.47;0.88;;;;;;;;;;5064035;28;20115;-75
2023/03/14 00:54:11;;;;;;;5.90;1.30;;;;;;;;;;5066271;28;20479;-76
2023/03/14 00:56:36;;;;;;;5.30;0.90;;;;;;;;;;5064617;28;20025;-76
2023/03/14 00:59:02;;;;;;;4.90;1.58;;;;;;;;;;5067591;28;20404;-76
2023/03/14 01:01:27;;;;;;;2.67;0.82;;;;;;;;;;5070765;28;20392;-75
2023/03/14 01:03:55;;;;;;;3.53;1.13;;;;;;;;;;5064198;28;20025;-75
2023/03/14 01:06:24;;;;;;;3.05;0.95;;;;;;;;;;5064816;28;20035;-75
2023/03/14 01:08:49;;;;;;;4.00;1.10;;;;;;;;;;5061907;28;20028;-75
2023/03/14 01:11:27;;;;;;;6.50;1.08;;;;;;;;;;5064243;28;20089;-77
2023/03/14 01:13:53;;;;;;;4.13;0.98;;;;;;;;;;5063167;28;20098;-77
2023/03/14 01:16:20;;;;;;;4.72;1.00;;;;;;;;;;5045308;28;20529;-77
2023/03/14 01:18:46;;;;;;;5.22;0.90;;;;;;;;;;5057576;28;20036;-76
2023/03/14 01:21:18;;;;;;;3.50;0.73;;;;;;;;;;5048898;28;20101;-77
2023/03/14 01:23:44;;;;;;;3.60;0.75;;;;;;;;;;5065803;28;20090;-77
2023/03/14 01:26:11;;;;;;;4.85;1.20;;;;;;;;;;5045192;28;20025;-77
2023/03/14 01:28:37;;;;;;;3.63;0.80;;;;;;;;;;5051235;28;20511;-77
2023/03/14 01:31:04;;;;;;;6.88;1.00;;;;;;;;;;5069921;28;20056;-77
2023/03/14 01:33:29;;;;;;;6.47;1.10;;;;;;;;;;5069818;28;20021;-77
2023/03/14 01:35:55;;;;;;;5.28;0.93;;;;;;;;;;5050431;28;20028;-77
2023/03/14 01:38:20;;;;;;;2.45;0.52;;;;;;;;;;5065055;28;20112;-77
2023/03/14 01:40:45;;;;;;;3.10;0.90;;;;;;;;;;5066641;28;20036;-77
2023/03/14 01:43:17;;;;;;;4.15;0.93;;;;;;;;;;5048462;28;20115;-77
2023/03/14 01:45:58;;;;;;;5.28;1.00;;;;;;;;;;5062601;28;20068;-76
2023/03/14 01:48:28;;;;;;;3.95;0.77;;;;;;;;;;5066411;28;20031;-76
2023/03/14 01:50:53;;;;;;;5.30;0.82;;;;;;;;;;5051180;28;20537;-77
2023/03/14 01:53:21;;;;;;;2.40;0.60;;;;;;;;;;5063751;28;20036;-77
2023/03/14 01:55:51;;;;;;;5.72;0.80;;;;;;;;;;5053450;28;20062;-77
2023/03/14 01:58:17;;;;;;;5.00;0.98;;;;;;;;;;5067830;28;20039;-77
2023/03/14 02:00:43;;;;;;;2.72;0.60;;;;;;;;;;5049503;28;20024;-76
2023/03/14 02:03:18;;;;;;;2.75;0.55;;;;;;;;;;5064981;28;20108;-77
2023/03/14 02:05:46;;;;;;;3.95;0.68;;;;;;;;;;5056794;28;20143;-76
2023/03/14 02:08:17;;;;;;;3.00;0.70;;;;;;;;;;5062681;28;20021;-76
2023/03/14 02:10:48;;;;;;;3.13;0.70;;;;;;;;;;5061238;28;20024;-76
2023/03/14 02:13:16;;;;;;;3.22;0.60;;;;;;;;;;5062413;28;20041;-77
2023/03/14 02:15:42;;;;;;;4.35;0.73;;;;;;;;;;5060352;28;20365;-76
2023/03/14 02:18:09;;;;;;;4.00;0.90;;;;;;;;;;5057828;28;20095;-76
2023/03/14 02:21:05;;;;;;;4.20;0.63;;;;;;;;;;5059613;28;20402;-77
2023/03/14 02:23:33;;;;;;;3.08;0.93;;;;;;;;;;5048883;28;20028;-76
2023/03/14 02:26:08;;;;;;;3.60;0.88;;;;;;;;;;5062545;28;20024;-76
2023/03/14 02:28:33;;;;;;;3.40;0.80;;;;;;;;;;5047942;28;20028;-76
2023/03/14 02:30:59;;;;;;;3.58;0.60;;;;;;;;;;5067937;28;20028;-77
2023/03/14 02:33:24;;;;;;;5.10;0.85;;;;;;;;;;5049643;28;20037;-76
2023/03/14 02:35:56;;;;;;;2.15;0.60;;;;;;;;;;5066475;28;20036;-76
2023/03/14 02:38:34;;;;;;;4.07;0.87;;;;;;;;;;5062868;28;20028;-76
2023/03/14 02:41:00;;;;;;;2.75;0.80;;;;;;;;;;5063038;28;20275;-76
2023/03/14 02:43:25;;;;;;;4.00;1.02;;;;;;;;;;5065199;28;20404;-76
2023/03/14 02:45:51;;;;;;;3.28;0.90;;;;;;;;;;5047284;28;20083;-76
2023/03/14 02:48:21;;;;;;;3.10;0.88;;;;;;;;;;5061216;28;20031;-76
2023/03/14 02:50:49;;;;;;;6.22;1.10;;;;;;;;;;5066666;28;20027;-77
2023/03/14 02:53:19;;;;;;;3.30;0.73;;;;;;;;;;5067585;28;20082;-77
2023/03/14 02:55:46;;;;;;;5.35;1.38;;;;;;;;;;5066256;28;20110;-76
2023/03/14 02:58:11;;;;;;;3.05;0.75;;;;;;;;;;5066908;28;20029;-77
2023/03/14 03:00:36;;;;;;;5.03;0.90;;;;;;;;;;5062714;28;20028;-76
2023/03/14 03:03:02;;;;;;;6.13;1.23;;;;;;;;;;5064130;28;20435;-76
2023/03/14 03:05:27;;;;;;;6.00;1.20;;;;;;;;;;5044304;28;20097;-76
2023/03/14 03:07:53;;;;;;;2.85;0.90;;;;;;;;;;5063670;28;20025;-76
2023/03/14 03:10:18;;;;;;;5.28;1.30;;;;;;;;;;5047384;28;20392;-76
2023/03/14 03:12:44;;;;;;;7.25;1.60;;;;;;;;;;5047211;28;20077;-77
2023/03/14 03:15:09;;;;;;;2.92;1.13;;;;;;;;;;5065336;28;20039;-77
2023/03/14 03:17:35;;;;;;;6.70;1.15;;;;;;;;;;5043017;28;20017;-77
2023/03/14 03:20:00;;;;;;;5.30;1.33;;;;;;;;;;5057988;28;20410;-77
2023/03/14 03:22:26;;;;;;;7.57;1.35;;;;;;;;;;5064775;28;20040;-76
2023/03/14 03:24:51;;;;;;;7.38;1.60;;;;;;;;;;5047382;28;20079;-77
2023/03/14 03:27:16;;;;;;;4.60;1.50;;;;;;;;;;5065844;28;20039;-77
2023/03/14 03:29:42;;;;;;;5.22;1.00;;;;;;;;;;5046309;28;20033;-76
2023/03/14 03:32:07;;;;;;;5.88;1.50;;;;;;;;;;5057735;28;20032;-77
2023/03/14 03:34:32;;;;;;;3.75;1.20;;;;;;;;;;5070260;28;20035;-77
2023/03/14 03:36:58;;;;;;;4.20;1.20;;;;;;;;;;5054170;28;20028;-77
2023/03/14 03:39:23;;;;;;;6.22;1.23;;;;;;;;;;5051642;28;20047;-76
2023/03/14 03:41:49;;;;;;;5.15;1.35;;;;;;;;;;5071819;28;20056;-77
2023/03/14 03:44:14;;;;;;;4.75;1.20;;;;;;;;;;5051949;28;20070;-76
2023/03/14 03:46:39;;;;;;;6.28;1.30;;;;;;;;;;5065849;28;20053;-77
2023/03/14 03:49:05;;;;;;;8.32;1.33;;;;;;;;;;5061268;28;20503;-76
2023/03/14 03:51:30;;;;;;;4.43;1.15;;;;;;;;;;5066823;28;20039;-77
2023/03/14 03:53:56;;;;;;;4.10;0.90;;;;;;;;;;5052018;28;20024;-77
2023/03/14 03:56:22;;;;;;;3.42;0.90;;;;;;;;;;5047562;28;20027;-77
2023/03/14 03:58:47;;;;;;;5.15;0.90;;;;;;;;;;5066891;28;20380;-77
2023/03/14 04:01:12;;;;;;;4.72;0.77;;;;;;;;;;5052184;28;20468;-77
2023/03/14 04:03:40;;;;;;;6.85;1.20;;;;;;;;;;5062564;28;20473;-76
2023/03/14 04:06:09;;;;;;;4.30;0.95;;;;;;;;;;5066552;28;20133;-77
2023/03/14 04:08:34;;;;;;;5.85;1.00;;;;;;;;;;5062686;28;20687;-77
2023/03/14 04:11:01;;;;;;;5.72;1.05;;;;;;;;;;5070587;28;20032;-77
2023/03/14 04:13:27;;;;;;;4.88;1.17;;;;;;;;;;5066826;28;20024;-76
2023/03/14 04:15:53;;;;;;;4.30;1.08;;;;;;;;;;5069327;28;20020;-77
2023/03/14 04:18:20;;;;;;;3.97;0.80;;;;;;;;;;5067910;28;20511;-76
2023/03/14 04:20:45;;;;;;;5.18;0.90;;;;;;;;;;5047648;28;20036;-77
2023/03/14 04:23:11;;;;;;;4.78;0.88;;;;;;;;;;5067190;28;20095;-76
2023/03/14 04:25:36;;;;;;;3.55;0.85;;;;;;;;;;5065653;28;20618;-76
2023/03/14 04:28:03;;;;;;;4.35;0.82;;;;;;;;;;5067255;28;20055;-77
2023/03/14 04:30:28;;;;;;;3.63;0.75;;;;;;;;;;5060886;28;20032;-77
2023/03/14 04:32:54;;;;;;;3.88;0.77;;;;;;;;;;5070498;28;20110;-76
2023/03/14 04:35:19;;;;;;;4.50;0.82;;;;;;;;;;5068056;28;20506;-77
2023/03/14 04:37:44;;;;;;;10.55;1.42;;;;;;;;;;5066230;28;20037;-76
2023/03/14 04:40:11;;;;;;;5.28;1.02;;;;;;;;;;5069331;28;20476;-76
2023/03/14 04:42:36;;;;;;;3.88;0.60;;;;;;;;;;5070441;28;20024;-77
2023/03/14 04:45:02;;;;;;;2.15;0.57;;;;;;;;;;5067499;28;20354;-77
2023/03/14 04:47:28;;;;;;;2.28;0.70;;;;;;;;;;5064559;28;20028;-76
2023/03/14 04:49:53;;;;;;;3.40;0.98;;;;;;;;;;5060904;28;20445;-76
2023/03/14 04:52:18;;;;;;;2.30;0.70;;;;;;;;;;5047255;28;20024;-77
2023/03/14 04:54:44;;;;;;;3.58;0.75;;;;;;;;;;5066809;28;20024;-77
2023/03/14 04:57:09;;;;;;;3.25;1.15;;;;;;;;;;5067188;28;20031;-76
2023/03/14 04:59:34;;;;;;;3.28;0.60;;;;;;;;;;5047093;28;20063;-77
2023/03/14 05:02:00;;;;;;;3.03;0.73;;;;;;;;;;5060279;28;20037;-76
2023/03/14 05:04:25;;;;;;;4.78;0.85;;;;;;;;;;5069929;28;20096;-77
2023/03/14 05:06:50;;;;;;;3.30;0.65;;;;;;;;;;5069465;28;20024;-77
2023/03/14 05:09:17;;;;;;;4.57;0.93;;;;;;;;;;5068556;28;20049;-76
2023/03/14 05:11:42;;;;;;;2.50;0.40;;;;;;;;;;5065935;28;20033;-77
2023/03/14 05:14:07;;;;;;;1.65;0.40;;;;;;;;;;5061992;28;20368;-77
2023/03/14 05:16:33;;;;;;;2.83;0.88;;;;;;;;;;5064832;28;20064;-77
2023/03/14 05:18:58;;;;;;;3.58;0.80;;;;;;;;;;5059285;28;20029;-77
2023/03/14 05:21:24;;;;;;;1.98;0.70;;;;;;;;;;5067263;28;20024;-77
2023/03/14 05:23:49;;;;;;;5.20;0.85;;;;;;;;;;5047204;28;20039;-77
2023/03/14 05:26:16;;;;;;;2.03;0.90;;;;;;;;;;5047206;28;20035;-77
2023/03/14 05:28:42;;;;;;;2.65;0.80;;;;;;;;;;5048426;28;20119;-77
2023/03/14 05:31:08;;;;;;;2.22;0.85;;;;;;;;;;5062565;28;20535;-77
2023/03/14 05:33:33;;;;;;;2.00;0.60;;;;;;;;;;5064863;28;20044;-77
2023/03/14 05:35:59;;;;;;;3.28;0.93;;;;;;;;;;5050948;28;20028;-77
2023/03/14 05:38:24;;;;;;;2.58;0.60;;;;;;;;;;5066031;28;20032;-76
2023/03/14 05:40:49;;;;;;;1.58;0.85;;;;;;;;;;5068148;28;21905;-77
2023/03/14 05:43:15;;;;;;;2.35;0.95;;;;;;;;;;5063542;28;20271;-76
2023/03/14 05:45:42;;;;;;;2.30;0.82;;;;;;;;;;5059529;28;20391;-77
2023/03/14 05:48:07;;;;;;;2.58;0.95;;;;;;;;;;5063411;28;20078;-77
2023/03/14 05:50:33;;;;;;;2.25;0.80;;;;;;;;;;5061638;28;20060;-77
2023/03/14 05:52:58;;;;;;;2.33;1.00;;;;;;;;;;5063299;28;20028;-77
2023/03/14 05:55:23;;;;;;;2.30;0.93;;;;;;;;;;5066522;28;20028;-77
2023/03/14 05:57:49;;;;;;;2.78;0.93;;;;;;;;;;5067934;28;20543;-77
2023/03/14 06:00:15;;;;;;;2.55;1.10;;;;;;;;;;5063711;28;20079;-77
2023/03/14 06:02:40;;;;;;;3.30;1.38;;;;;;;;;;5062813;28;20021;-77
2023/03/14 06:05:06;;;;;;;3.90;1.30;;;;;;;;;;5063293;28;20407;-77
2023/03/14 06:07:31;;;;;;;5.10;1.52;;;;;;;;;;5060969;28;20020;-77
2023/03/14 06:09:58;;;;;;;2.83;1.20;;;;;;;;;;5068520;28;20539;-77
2023/03/14 06:12:23;;;;;;;4.88;1.38;;;;;;;;;;5062934;28;20025;-77
2023/03/14 06:14:49;;;;;;;2.72;1.23;;;;;;;;;;5052535;28;20025;-77
2023/03/14 06:17:14;;;;;;;4.78;1.40;;;;;;;;;;5069110;28;20017;-77
2023/03/14 06:19:39;;;;;;;3.30;1.33;;;;;;;;;;5049687;28;20081;-76
2023/03/14 06:22:05;;;;;;;2.90;1.33;;;;;;;;;;5061574;28;20333;-77
2023/03/14 06:24:30;;;;;;;3.53;1.58;;;;;;;;;;5048191;28;20029;-77
2023/03/14 06:26:55;;;;;;;3.10;1.55;;;;;;;;;;5051163;28;20074;-76
2023/03/14 06:29:21;;;;;;;2.95;1.73;;;;;;;;;;5066834;28;20043;-77
2023/03/14 06:31:46;;;;;;;3.50;1.65;;;;;;;;;;5061345;28;20036;-77
2023/03/14 06:34:11;;;;;;;3.60;1.75;;;;;;;;;;5062834;28;20021;-76
2023/03/14 06:36:37;;;;;;;3.92;1.67;;;;;;;;;;5065260;28;20032;-76
2023/03/14 06:39:02;;;;;;;3.42;1.60;;;;;;;;;;5067685;28;20032;-76
2023/03/14 06:41:27;;;;;;;5.30;1.70;;;;;;;;;;5065705;28;20071;-76
2023/03/14 06:43:53;;;;;;;4.60;1.70;;;;;;;;;;5067611;28;20048;-76
2023/03/14 06:46:18;;;;;;;3.10;1.60;;;;;;;;;;5064993;28;20490;-76
2023/03/14 06:48:44;;;;;;;3.75;1.80;;;;;;;;;;5048947;28;20036;-77
2023/03/14 06:51:09;;;;;;;4.28;1.80;;;;;;;;;;5044260;28;20032;-77
2023/03/14 06:53:34;;;;;;;4.00;1.80;;;;;;;;;;5064657;28;20107;-77
2023/03/14 06:56:00;;;;;;;5.68;2.00;;;;;;;;;;5068119;28;20037;-76
2023/03/14 06:58:25;;;;;;;3.80;1.50;;;;;;;;;;5066778;28;20107;-76
2023/03/14 07:00:53;;;;;;;3.33;1.70;;;;;;;;;;5047367;28;20476;-76
2023/03/14 07:03:18;;;;;;;3.05;1.65;;;;;;;;;;5054723;28;20025;-76
2023/03/14 07:05:44;;;;;;;3.47;1.70;;;;;;;;;;5055675;28;20541;-76
2023/03/14 07:08:09;;;;;;;4.18;1.90;;;;;;;;;;5065927;28;20396;-76
2023/03/14 07:10:35;;;;;;;3.00;1.50;;;;;;;;;;5070504;28;20388;-76
2023/03/14 07:13:00;;;;;;;1.67;0.60;;;;;;;;;;5051187;28;20033;-77
2023/03/14 07:15:25;;;;;;;2.72;0.80;;;;;;;;;;5070972;28;20024;-76
2023/03/14 07:17:51;;;;;;;1.70;0.70;;;;;;;;;;5066633;28;20128;-76
2023/03/14 07:20:16;;;;;;;2.05;0.85;;;;;;;;;;5070547;28;20039;-76
2023/03/14 07:22:42;;;;;;;2.42;0.63;;;;;;;;;;5071031;28;20020;-76
2023/03/14 07:25:09;;;;;;;2.13;0.63;;;;;;;;;;5060674;28;20028;-76
2023/03/14 07:27:35;;;;;;;0.50;0.30;;;;;;;;;;5068281;28;20499;-76
2023/03/14 07:30:00;;;;;;;2.72;0.32;;;;;;;;;;5047800;28;20028;-77
2023/03/14 07:32:25;;;;;;;0.73;0.30;;;;;;;;;;5064240;28;20033;-76
2023/03/14 07:34:50;;;;;;;1.40;0.40;;;;;;;;;;5072251;28;20024;-76
2023/03/14 07:37:16;;;;;;;2.58;0.60;;;;;;;;;;5073259;28;20028;-76
2023/03/14 07:39:41;;;;;;;3.42;0.52;;;;;;;;;;5070695;28;20025;-76
2023/03/14 07:42:06;;;;;;;1.45;0.50;;;;;;;;;;5055598;28;20036;-76
2023/03/14 07:44:32;;;;;;;2.20;0.32;;;;;;;;;;5064872;28;20456;-76
2023/03/14 07:46:58;;;;;;;1.33;0.52;;;;;;;;;;5059853;28;20101;-75
2023/03/14 07:49:23;;;;;;;1.30;0.40;;;;;;;;;;5064015;28;20070;-76
2023/03/14 07:51:49;;;;;;;2.10;0.40;;;;;;;;;;5064758;28;20120;-76
2023/03/14 07:54:14;;;;;;;0.90;0.32;;;;;;;;;;5049504;28;20028;-75
2023/03/14 07:56:40;;;;;;;0.73;0.40;;;;;;;;;;5071392;28;20032;-76
2023/03/14 07:59:06;;;;;;;1.83;0.55;;;;;;;;;;5064591;28;20064;-76
2023/03/14 08:01:31;;;;;;;3.25;1.13;;;;;;;;;;5051477;28;20487;-75
2023/03/14 08:03:56;;;;;;;3.70;0.80;;;;;;;;;;5070662;28;20016;-76
2023/03/14 08:06:22;;;;;;;1.50;0.70;;;;;;;;;;5071385;28;20051;-75
2023/03/14 08:08:47;;;;;;;2.35;0.70;;;;;;;;;;5053168;28;20369;-76
2023/03/14 08:11:12;;;;;;;1.45;0.80;;;;;;;;;;5065151;28;20366;-76
2023/03/14 08:13:39;;;;;;;2.03;0.80;;;;;;;;;;5061335;28;20021;-76
2023/03/14 08:16:04;;;;;;;2.47;1.10;;;;;;;;;;5067449;28;20035;-75
2023/03/14 08:18:30;;;;;;;2.05;1.00;;;;;;;;;;5069348;28;20032;-76
2023/03/14 08:20:55;;;;;;;2.47;1.00;;;;;;;;;;5066460;28;20431;-75
2023/03/14 08:23:21;;;;;;;5.07;0.88;;;;;;;;;;5056609;28;20026;-76
2023/03/14 08:25:49;;;;;;;2.05;0.80;;;;;;;;;;5068115;28;20387;-76
2023/03/14 08:28:14;;;;;;;3.15;0.88;;;;;;;;;;5070190;28;20519;-76
2023/03/14 08:30:39;;;;;;;1.60;0.73;;;;;;;;;;5046473;28;20021;-75
2023/03/14 08:33:04;;;;;;;1.90;0.50;;;;;;;;;;5065159;28;20029;-75
2023/03/14 08:35:30;;;;;;;1.90;0.55;;;;;;;;;;5033847;28;20035;-76
2023/03/14 08:37:55;;;;;;;1.85;0.57;;;;;;;;;;5069833;28;20024;-76
2023/03/14 08:40:20;;;;;;;1.60;0.55;;;;;;;;;;5062590;28;20105;-76
2023/03/14 08:42:46;;;;;;;1.27;0.47;;;;;;;;;;5069372;28;20032;-76
2023/03/14 08:45:13;;;;;;;1.88;0.40;;;;;;;;;;5068227;28;20115;-76
2023/03/14 08:47:39;;;;;;;4.15;0.60;;;;;;;;;;5063684;28;20052;-76
2023/03/14 08:50:05;;;;;;;1.10;0.50;;;;;;;;;;5068202;28;20717;-76
2023/03/14 08:52:31;;;;;;;1.73;0.65;;;;;;;;;;5063521;28;20112;-76
2023/03/14 08:54:57;;;;;;;3.42;0.80;;;;;;;;;;5069528;28;20119;-76
2023/03/14 08:57:27;;;;;;;3.78;0.80;;;;;;;;;;5060216;28;20381;-76
2023/03/14 08:59:53;;;;;;;1.17;0.60;;;;;;;;;;5052209;28;20020;-77
2023/03/14 09:02:18;;;;;;;2.10;0.70;;;;;;;;;;5069665;28;20028;-76
2023/03/14 09:04:43;;;;;;;1.25;0.60;;;;;;;;;;5065698;28;20431;-76
2023/03/14 09:07:09;;;;;;;1.52;0.30;;;;;;;;;;5062182;28;20495;-76
2023/03/14 09:09:34;;;;;;;1.67;0.20;;;;;;;;;;5060748;28;20396;-76
2023/03/14 09:11:59;;;;;;;0.30;0.20;;;;;;;;;;5065809;28;20021;-76
2023/03/14 09:14:25;;;;;;;0.82;0.20;;;;;;;;;;5070089;28;20029;-75
2023/03/14 09:16:50;;;;;;;2.50;0.17;;;;;;;;;;5067766;28;20063;-76
2023/03/14 09:19:16;;;;;;;0.75;0.20;;;;;;;;;;5053309;28;20102;-75
2023/03/14 09:21:41;;;;;;;1.05;0.10;;;;;;;;;;5052261;28;20060;-75
2023/03/14 09:24:07;;;;;;;1.75;0.28;;;;;;;;;;5062634;28;20119;-76
2023/03/14 09:26:32;;;;;;;0.80;0.20;;;;;;;;;;5062196;28;20028;-76
2023/03/14 09:28:58;;;;;;;0.00;0.00;;;;;;;;;;5041181;28;20082;-76
2023/03/14 09:31:23;;;;;;;0.40;0.17;;;;;;;;;;5059850;28;20031;-76
2023/03/14 09:33:48;;;;;;;0.80;0.40;;;;;;;;;;5065706;28;20064;-76
2023/03/14 09:36:14;;;;;;;1.20;0.30;;;;;;;;;;5067642;28;20028;-75
2023/03/14 09:38:39;;;;;;;1.77;0.30;;;;;;;;;;5069771;28;20036;-75
2023/03/14 09:41:27;;;;;;;2.65;0.40;;;;;;;;;;5071676;28;20063;-76
2023/03/14 09:44:10;;;;;;;1.23;0.20;;;;;;;;;;5066635;28;20020;-75
2023/03/14 09:46:39;;;;;;;2.45;0.30;;;;;;;;;;5025645;28;20036;-76
2023/03/14 09:49:35;;;;;;;2.33;0.30;;;;;;;;;;5049482;28;20028;-77
2023/03/14 09:52:06;;;;;;;6.18;0.80;;;;;;;;;;5043238;28;20032;-76
2023/03/14 09:54:38;;;;;;;3.38;0.70;;;;;;;;;;5069056;28;20108;-76
2023/03/14 09:57:06;;;;;;;2.25;0.40;;;;;;;;;;5065151;28;20028;-77
2023/03/14 09:59:35;;;;;;;3.08;0.40;;;;;;;;;;5064609;28;20495;-76
2023/03/14 10:02:01;;;;;;;2.72;0.50;;;;;;;;;;5071207;28;20115;-76
2023/03/14 10:04:29;;;;;;;3.97;0.38;;;;;;;;;;5060770;28;20025;-76
2023/03/14 10:06:55;;;;;;;3.97;0.70;;;;;;;;;;5065558;28;20136;-76
2023/03/14 10:09:25;;;;;;;6.25;0.88;;;;;;;;;;5057898;28;20095;-76
2023/03/14 10:11:56;;;;;;;4.60;0.80;;;;;;;;;;5059520;28;20025;-77
2023/03/14 10:14:36;;;;;;;6.10;0.68;;;;;;;;;;5061314;28;20370;-76
2023/03/14 10:17:07;;;;;;;4.60;0.70;;;;;;;;;;5051093;28;20480;-77
2023/03/14 10:19:35;;;;;;;8.38;0.70;;;;;;;;;;5068340;28;20029;-76
2023/03/14 10:22:02;;;;;;;6.90;1.10;;;;;;;;;;5041224;28;20409;-76
2023/03/14 10:24:30;;;;;;;2.65;0.70;;;;;;;;;;5061882;28;20040;-76
2023/03/14 10:27:06;;;;;;;6.45;1.23;;;;;;;;;;5049287;28;20020;-77
2023/03/14 10:29:33;;;;;;;4.88;0.80;;;;;;;;;;5065190;28;20468;-76
2023/03/14 10:32:07;;;;;;;7.32;0.90;;;;;;;;;;5068565;28;20043;-76
2023/03/14 10:34:38;;;;;;;6.43;0.85;;;;;;;;;;5069231;28;20025;-76
2023/03/14 10:37:06;;;;;;;6.90;1.13;;;;;;;;;;5066670;28;20024;-76
2023/03/14 10:39:44;;;;;;;5.85;0.90;;;;;;;;;;5045701;28;20369;-76
2023/03/14 10:42:28;;;;;;;6.80;0.85;;;;;;;;;;5063626;28;20041;-77
2023/03/14 10:45:00;;;;;;;9.07;1.13;;;;;;;;;;5065382;28;20094;-77
2023/03/14 10:47:28;;;;;;;7.45;1.30;;;;;;;;;;5064700;28;20021;-76
2023/03/14 10:49:53;;;;;;;5.07;0.77;;;;;;;;;;5074798;28;20471;-77
2023/03/14 10:52:25;;;;;;;5.55;0.80;;;;;;;;;;5050812;28;20023;-76
2023/03/14 10:54:57;;;;;;;5.70;1.27;;;;;;;;;;5066540;28;20166;-77
2023/03/14 10:57:24;;;;;;;8.10;0.98;;;;;;;;;;5061282;28;20395;-77
2023/03/14 10:59:49;;;;;;;4.18;0.75;;;;;;;;;;5049334;28;20472;-76
2023/03/14 11:02:28;;;;;;;3.47;0.55;;;;;;;;;;5064946;28;20021;-76
2023/03/14 11:05:18;;;;;;;3.65;0.80;;;;;;;;;;5064875;28;20025;-77
2023/03/14 11:07:44;;;;;;;4.00;0.70;;;;;;;;;;5063475;28;20029;-76
2023/03/14 11:10:28;;;;;;;5.40;1.05;;;;;;;;;;5062484;28;20058;-76
2023/03/14 11:13:06;;;;;;;7.18;0.90;;;;;;;;;;5061767;28;20024;-76
2023/03/14 11:15:36;;;;;;;9.38;1.30;;;;;;;;;;5062299;28;20025;-76
2023/03/14 11:18:29;;;;;;;5.25;1.08;;;;;;;;;;5042662;28;20403;-76
2023/03/14 11:21:06;;;;;;;6.25;1.38;;;;;;;;;;5062972;28;21589;-76
2023/03/14 11:23:42;;;;;;;4.15;1.17;;;;;;;;;;5045208;28;20032;-76
2023/03/14 11:26:18;;;;;;;5.22;0.85;;;;;;;;;;5067589;28;20476;-77
2023/03/14 11:28:50;;;;;;;8.90;1.13;;;;;;;;;;5065219;28;20025;-76
2023/03/14 11:31:28;;;;;;;5.85;0.85;;;;;;;;;;5059507;28;20419;-76
2023/03/14 11:34:10;;;;;;;9.02;1.10;;;;;;;;;;5063725;28;20116;-76
2023/03/14 11:36:49;;;;;;;6.85;1.42;;;;;;;;;;5061840;28;20056;-76
2023/03/14 11:39:17;;;;;;;11.30;1.75;;;;;;;;;;5038035;28;20028;-76
2023/03/14 11:41:45;;;;;;;7.38;1.40;;;;;;;;;;5046213;28;20032;-76
2023/03/14 11:44:30;;;;;;;6.05;1.25;;;;;;;;;;5064335;28;20044;-76
2023/03/14 11:47:20;;;;;;;6.22;1.20;;;;;;;;;;5052794;28;20032;-75
2023/03/14 11:49:56;;;;;;;8.20;1.05;;;;;;;;;;5060238;28;20055;-74
2023/03/14 11:52:32;;;;;;;11.25;1.42;;;;;;;;;;5063809;28;20020;-74
2023/03/14 11:55:07;;;;;;;8.25;1.40;;;;;;;;;;5063836;28;20079;-75
2023/03/14 11:57:32;;;;;;;9.20;1.27;;;;;;;;;;5065591;28;20020;-75
2023/03/14 12:00:11;;;;;;;4.57;0.93;;;;;;;;;;5068732;28;20116;-74
2023/03/14 12:02:56;;;;;;;9.30;1.55;;;;;;;;;;5050479;28;20054;-75
2023/03/14 12:05:33;;;;;;;12.10;1.52;;;;;;;;;;5052085;28;20024;-74
2023/03/14 12:08:07;;;;;;;12.30;1.83;;;;;;;;;;5053166;28;20360;-75
2023/03/14 12:10:59;;;;;;;6.03;0.95;;;;;;;;;;5070538;28;20025;-75
2023/03/14 12:13:32;;;;;;;6.18;1.00;;;;;;;;;;5047533;28;20469;-74
2023/03/14 12:16:01;;;;;;;9.27;1.08;;;;;;;;;;5068471;28;20115;-73
2023/03/14 12:18:32;;;;;;;10.35;1.42;;;;;;;;;;5068952;28;20032;-74
2023/03/14 12:21:00;;;;;;;11.13;1.55;;;;;;;;;;5075550;28;20024;-78
2023/03/14 12:23:27;;;;;;;8.00;0.90;;;;;;;;;;5043460;28;20036;-75
2023/03/14 12:26:20;;;;;;;9.07;1.40;;;;;;;;;;5055613;28;20044;-75
2023/03/14 12:28:56;;;;;;;9.27;1.17;;;;;;;;;;5052569;28;20020;-75
2023/03/14 12:31:31;;;;;;;4.97;0.68;;;;;;;;;;5070642;28;20029;-79
2023/03/14 12:34:08;;;;;;;8.80;1.23;;;;;;;;;;5072124;28;20024;-81
2023/03/14 12:37:26;;;;;;;8.00;1.33;;;;;;;;;;5054394;28;20036;-79
2023/03/14 12:40:13;;;;;;;8.52;1.90;;;;;;;;;;4985911;28;20119;-75
2023/03/14 12:42:42;;;;;;;6.95;0.98;;;;;;;;;;5052283;28;20107;-76
2023/03/14 12:45:23;;;;;;;3.88;1.50;;;;;;;;;;5068295;28;20052;-76
2023/03/14 12:48:20;;;;;;;6.63;0.90;;;;;;;;;;5066789;28;20060;-77
2023/03/14 12:50:56;;;;;;;4.05;0.80;;;;;;;;;;5071439;28;20032;-75
2023/03/14 12:53:58;;;;;;;6.32;1.00;;;;;;;;;;5073949;28;20028;-75
2023/03/14 12:56:25;;;;;;;7.10;1.05;;;;;;;;;;5045900;28;20035;-75
2023/03/14 12:59:01;;;;;;;6.78;1.20;;;;;;;;;;5065846;28;20515;-75
2023/03/14 13:01:26;;;;;;;4.30;0.65;;;;;;;;;;5055213;28;20498;-75
2023/03/14 13:03:56;;;;;;;5.72;1.15;;;;;;;;;;5053293;28;20059;-74
2023/03/14 13:07:01;;;;;;;6.90;0.93;;;;;;;;;;5062046;28;20032;-75
2023/03/14 13:09:29;;;;;;;4.75;0.60;;;;;;;;;;4992735;28;20110;-75
2023/03/14 13:12:00;;;;;;;4.07;0.75;;;;;;;;;;4984693;28;20026;-75
2023/03/14 13:14:28;;;;;;;6.30;0.60;;;;;;;;;;5028562;28;20032;-75
2023/03/14 13:16:53;;;;;;;6.03;0.95;;;;;;;;;;5068806;28;20078;-74
2023/03/14 13:19:24;;;;;;;4.18;1.10;;;;;;;;;;5068646;28;20380;-74
2023/03/14 13:21:50;;;;;;;3.85;0.60;;;;;;;;;;5070923;28;20021;-75
2023/03/14 13:24:24;;;;;;;4.82;0.70;;;;;;;;;;5042528;28;20029;-75
2023/03/14 13:26:53;;;;;;;3.25;0.73;;;;;;;;;;5070005;28;20047;-75
2023/03/14 13:29:23;;;;;;;8.27;0.77;;;;;;;;;;5068990;28;20578;-75
2023/03/14 13:31:52;;;;;;;4.63;0.85;;;;;;;;;;5064687;28;20021;-75
2023/03/14 13:34:18;;;;;;;2.63;0.50;;;;;;;;;;5066124;28;20063;-75
2023/03/14 13:36:44;;;;;;;5.00;0.93;;;;;;;;;;5054533;28;20017;-75
2023/03/14 13:39:16;;;;;;;4.93;1.00;;;;;;;;;;5072609;28;20025;-75
2023/03/14 13:41:42;;;;;;;4.47;0.90;;;;;;;;;;5053416;28;20127;-75
2023/03/14 13:44:13;;;;;;;2.17;0.60;;;;;;;;;;5051468;28;20307;-75
2023/03/14 13:46:38;;;;;;;4.05;0.43;;;;;;;;;;5065668;28;20044;-76
2023/03/14 13:49:17;;;;;;;5.57;1.38;;;;;;;;;;5070435;28;20392;-75
2023/03/14 13:51:43;;;;;;;4.63;0.60;;;;;;;;;;5065150;28;20630;-75
2023/03/14 13:54:14;;;;;;;3.47;0.70;;;;;;;;;;5068734;28;20027;-75
2023/03/14 13:56:40;;;;;;;5.03;0.70;;;;;;;;;;5066650;28;20016;-75
2023/03/14 13:59:30;;;;;;;5.35;1.15;;;;;;;;;;5049684;28;20089;-75
2023/03/14 14:01:59;;;;;;;5.32;0.90;;;;;;;;;;5070105;28;20029;-75
2023/03/14 14:04:26;;;;;;;5.68;0.93;;;;;;;;;;5057556;28;20016;-75
2023/03/14 14:07:07;;;;;;;2.90;0.63;;;;;;;;;;5063176;28;20494;-75
2023/03/14 14:09:40;;;;;;;1.67;0.43;;;;;;;;;;5070009;28;20020;-75
2023/03/14 14:12:18;;;;;;;4.07;0.60;;;;;;;;;;5066970;28;20029;-75
2023/03/14 14:14:46;;;;;;;3.22;0.55;;;;;;;;;;5050012;28;20031;-75
2023/03/14 14:17:18;;;;;;;3.08;0.60;;;;;;;;;;5053441;28;20028;-75
2023/03/14 14:19:45;;;;;;;3.53;0.70;;;;;;;;;;5070580;28;20109;-76
2023/03/14 14:22:11;;;;;;;4.28;0.85;;;;;;;;;;5061161;28;20024;-76
2023/03/14 14:24:38;;;;;;;5.30;0.75;;;;;;;;;;5070972;28;20399;-75
2023/03/14 14:27:28;;;;;;;5.50;0.80;;;;;;;;;;5072430;28;20484;-75
2023/03/14 14:30:20;;;;;;;1.85;0.47;;;;;;;;;;5047414;28;20086;-75
2023/03/14 14:32:47;;;;;;;2.45;0.73;;;;;;;;;;5026672;28;20500;-75
2023/03/14 14:35:31;;;;;;;3.20;0.75;;;;;;;;;;5069386;28;20044;-75
2023/03/14 14:37:57;;;;;;;4.82;0.80;;;;;;;;;;5046587;28;20032;-76
2023/03/14 14:40:25;;;;;;;4.28;0.90;;;;;;;;;;5065730;28;20098;-74
2023/03/14 14:42:51;;;;;;;4.65;0.70;;;;;;;;;;5060988;28;20159;-75
2023/03/14 14:45:22;;;;;;;3.85;0.60;;;;;;;;;;5061756;28;20017;-76
2023/03/14 14:48:04;;;;;;;7.32;0.93;;;;;;;;;;5066419;28;20021;-75
2023/03/14 14:50:33;;;;;;;4.88;0.70;;;;;;;;;;5062076;28;20055;-74
2023/03/14 14:53:19;;;;;;;6.55;1.10;;;;;;;;;;5067001;28;20059;-75